Time;durP1;ratioP1;P1;durP2;ratioP2;P2;SDS_P1;SDS_P2;PMS_P1;PMS_P2;Temp;Humidity;BMP_temperature;BMP_pressure;BME280_temperature;BME280_humidity;BME280_pressure;Samples;Min_cycle;Max_cycle;Signal;HPM_P1;HPM_P2
2022/02/07 00:02:19;;;;;;;17.27;3.67;;;6.10;86.30;;;;;;5004738;28;20064;-65
2022/02/07 00:04:47;;;;;;;13.55;3.85;;;6.00;87.10;;;;;;5015402;28;20046;-65
2022/02/07 00:07:17;;;;;;;11.10;2.70;;;6.00;88.20;;;;;;5029656;28;20562;-65
2022/02/07 00:09:44;;;;;;;10.32;2.95;;;6.00;88.10;;;;;;5021874;28;20057;-66
2022/02/07 00:12:11;;;;;;;9.50;2.60;;;5.90;88.50;;;;;;5012678;28;20057;-65
2022/02/07 00:14:38;;;;;;;8.15;2.97;;;5.90;88.60;;;;;;5000527;28;20052;-66
2022/02/07 00:17:05;;;;;;;8.23;2.90;;;5.90;89.20;;;;;;5034429;28;20057;-67
2022/02/07 00:19:32;;;;;;;13.32;3.38;;;5.90;89.40;;;;;;4998614;28;20132;-65
2022/02/07 00:22:00;;;;;;;11.95;2.97;;;5.80;90.00;;;;;;5032276;28;20045;-65
2022/02/07 00:24:27;;;;;;;14.45;2.90;;;5.80;89.40;;;;;;5018621;28;20052;-65
2022/02/07 00:26:54;;;;;;;15.52;4.72;;;5.90;90.00;;;;;;5031408;28;20423;-66
2022/02/07 00:29:21;;;;;;;8.95;3.47;;;5.80;89.70;;;;;;5029555;28;20481;-65
2022/02/07 00:31:47;;;;;;;13.65;4.20;;;5.80;89.50;;;;;;5025420;28;20042;-65
2022/02/07 00:34:14;;;;;;;17.75;4.35;;;5.80;89.40;;;;;;5013265;28;20048;-65
2022/02/07 00:36:42;;;;;;;12.15;3.45;;;5.80;89.40;;;;;;5013454;28;20084;-65
2022/02/07 00:39:16;;;;;;;16.13;4.70;;;5.80;89.90;;;;;;5021958;28;20052;-65
2022/02/07 00:41:52;;;;;;;20.13;4.40;;;5.80;89.80;;;;;;5029537;28;20080;-66
2022/02/07 00:44:20;;;;;;;9.18;2.67;;;5.80;90.40;;;;;;5031091;28;20057;-67
2022/02/07 00:46:51;;;;;;;15.70;2.60;;;5.70;90.10;;;;;;5014097;28;20060;-66
2022/02/07 00:49:18;;;;;;;14.02;3.70;;;5.70;90.40;;;;;;5011093;28;20046;-65
2022/02/07 00:51:47;;;;;;;17.80;3.08;;;5.70;90.40;;;;;;5015419;28;20099;-66
2022/02/07 00:54:14;;;;;;;11.70;3.22;;;5.70;90.30;;;;;;5024352;28;20099;-65
2022/02/07 00:56:41;;;;;;;12.25;3.25;;;5.70;90.60;;;;;;5011288;28;20045;-65
2022/02/07 00:59:09;;;;;;;16.55;3.40;;;5.70;90.80;;;;;;5013930;28;20496;-65
2022/02/07 01:01:36;;;;;;;14.52;3.17;;;5.60;90.60;;;;;;5019080;28;20498;-65
2022/02/07 01:04:03;;;;;;;20.38;4.82;;;5.60;90.70;;;;;;5013288;28;20050;-65
2022/02/07 01:06:30;;;;;;;10.73;3.92;;;5.60;90.90;;;;;;5007799;28;20049;-65
2022/02/07 01:12:03;;;;;;;13.65;4.40;;;5.60;90.70;;;;;;5026935;28;20045;-65
2022/02/07 01:14:47;;;;;;;12.95;3.40;;;5.60;90.80;;;;;;5007789;28;20046;-65
2022/02/07 01:47:48;;;;;;;15.75;4.70;;;5.50;92.00;;;;;;5052335;28;20083;-64
2022/02/07 01:55:51;;;;;;;12.05;3.30;;;5.50;91.70;;;;;;5069054;28;20515;-64
2022/02/07 01:58:19;;;;;;;15.82;4.00;;;5.60;91.60;;;;;;5068899;28;20456;-65
2022/02/07 02:00:46;;;;;;;11.40;3.97;;;5.60;91.60;;;;;;5068707;28;20068;-65
2022/02/07 02:03:13;;;;;;;8.98;3.35;;;5.60;91.80;;;;;;5071479;28;20492;-64
2022/02/07 02:05:40;;;;;;;16.55;4.03;;;5.60;91.80;;;;;;5084179;28;20048;-64
2022/02/07 02:08:11;;;;;;;16.23;5.00;;;5.60;91.90;;;;;;5083297;28;20048;-65
2022/02/07 02:10:46;;;;;;;15.95;5.28;;;5.60;91.70;;;;;;5051405;28;20045;-64
2022/02/07 02:13:23;;;;;;;12.25;3.40;;;5.60;92.40;;;;;;5046395;28;20500;-65
2022/02/07 02:32:52;;;;;;;16.20;4.18;;;5.70;92.70;;;;;;5056707;28;20052;-65
2022/02/07 02:38:11;;;;;;;15.85;4.80;;;5.80;92.50;;;;;;5072436;28;20063;-64
2022/02/07 02:46:09;;;;;;;13.13;4.20;;;5.70;92.90;;;;;;5066574;28;20110;-64
2022/02/07 02:48:41;;;;;;;13.68;3.95;;;5.60;93.00;;;;;;5074766;28;20044;-64
2022/02/07 02:51:09;;;;;;;15.43;4.13;;;5.60;93.30;;;;;;5078060;28;20049;-64
2022/02/07 02:53:36;;;;;;;17.20;4.13;;;5.60;93.20;;;;;;5068425;28;20554;-65
2022/02/07 02:56:03;;;;;;;12.45;3.50;;;5.50;93.50;;;;;;5047285;28;20048;-64
2022/02/07 02:58:30;;;;;;;12.07;3.17;;;5.50;93.70;;;;;;5063127;28;20072;-65
2022/02/07 03:00:57;;;;;;;12.85;4.03;;;5.50;93.70;;;;;;5070223;28;20512;-64
2022/02/07 03:03:24;;;;;;;12.60;3.95;;;5.40;93.80;;;;;;5063411;28;20047;-65
2022/02/07 03:05:51;;;;;;;12.60;3.30;;;5.30;94.00;;;;;;5065605;28;20048;-65
2022/02/07 03:08:19;;;;;;;9.52;3.67;;;5.30;94.60;;;;;;5071456;28;20045;-65
2022/02/07 03:13:44;;;;;;;9.38;3.05;;;5.10;95.20;;;;;;5071752;28;20052;-64
2022/02/07 03:18:51;;;;;;;14.77;4.47;;;5.00;95.80;;;;;;5057798;28;20497;-65
2022/02/07 03:21:18;;;;;;;14.75;4.03;;;5.00;96.00;;;;;;5065646;28;20488;-64
2022/02/07 03:23:45;;;;;;;13.45;4.28;;;5.00;96.10;;;;;;5053639;28;20079;-70
2022/02/07 03:26:14;;;;;;;16.85;4.05;;;5.00;96.30;;;;;;5061302;28;20037;-65
2022/02/07 03:28:41;;;;;;;12.00;3.97;;;5.00;96.20;;;;;;5061292;28;20493;-65
2022/02/07 03:31:09;;;;;;;12.75;2.85;;;5.00;96.20;;;;;;5055382;28;20339;-64
2022/02/07 03:33:38;;;;;;;13.13;3.45;;;5.10;96.10;;;;;;5054041;28;20130;-65
2022/02/07 03:36:05;;;;;;;13.13;3.45;;;5.00;96.40;;;;;;5069853;28;20048;-67
2022/02/07 03:38:32;;;;;;;14.10;3.75;;;5.00;96.50;;;;;;5059155;28;20053;-64
2022/02/07 03:40:59;;;;;;;15.20;3.80;;;5.00;96.80;;;;;;5053899;28;20454;-64
2022/02/07 03:43:26;;;;;;;12.25;3.70;;;5.00;97.30;;;;;;5060623;28;20090;-65
2022/02/07 03:45:53;;;;;;;9.80;4.05;;;5.00;97.50;;;;;;5064970;28;20045;-65
2022/02/07 03:48:20;;;;;;;14.93;4.07;;;5.00;97.80;;;;;;5060467;28;20411;-64
2022/02/07 03:50:47;;;;;;;13.50;4.13;;;5.00;97.50;;;;;;5071663;28;20052;-64
2022/02/07 03:53:14;;;;;;;12.43;3.58;;;5.00;97.20;;;;;;5065661;28;20067;-64
2022/02/07 03:55:42;;;;;;;12.18;3.38;;;5.00;97.70;;;;;;5056535;28;20059;-64
2022/02/07 03:58:09;;;;;;;15.07;3.42;;;5.00;97.40;;;;;;5052642;28;20102;-64
2022/02/07 04:00:36;;;;;;;15.02;3.30;;;5.00;97.70;;;;;;5047670;28;20048;-64
2022/02/07 04:03:07;;;;;;;7.65;2.80;;;4.90;98.00;;;;;;5070163;28;20051;-64
2022/02/07 04:05:44;;;;;;;13.60;3.38;;;4.90;97.90;;;;;;5071453;28;20415;-64
2022/02/07 04:08:12;;;;;;;17.77;4.47;;;4.90;98.10;;;;;;5066712;28;20047;-65
2022/02/07 04:10:57;;;;;;;19.17;3.22;;;4.80;98.50;;;;;;5062303;28;20045;-64
2022/02/07 04:13:33;;;;;;;14.10;4.50;;;4.80;98.90;;;;;;5065350;28;20416;-65
2022/02/07 04:16:01;;;;;;;9.27;2.97;;;4.70;99.40;;;;;;5071385;28;20392;-64
2022/02/07 04:18:33;;;;;;;13.55;4.15;;;4.70;99.90;;;;;;5054394;28;20098;-64
2022/02/07 04:21:01;;;;;;;15.25;3.53;;;4.60;99.80;;;;;;5071123;28;20106;-64
2022/02/07 04:23:28;;;;;;;10.25;2.92;;;4.60;99.90;;;;;;5063979;28;20485;-64
2022/02/07 04:25:55;;;;;;;10.20;3.00;;;4.60;99.90;;;;;;5050609;28;20048;-64
2022/02/07 04:28:22;;;;;;;10.13;3.33;;;4.60;99.90;;;;;;5071817;28;20151;-64
2022/02/07 04:30:49;;;;;;;16.00;3.33;;;4.50;99.90;;;;;;5065412;28;20510;-64
2022/02/07 04:33:16;;;;;;;12.02;3.10;;;4.50;99.90;;;;;;5071545;28;20049;-64
2022/02/07 04:35:44;;;;;;;6.75;3.00;;;4.40;99.90;;;;;;5068098;28;20058;-65
2022/02/07 04:38:11;;;;;;;16.90;3.55;;;4.40;99.90;;;;;;5040080;28;20377;-64
2022/02/07 04:40:38;;;;;;;15.65;4.85;;;4.30;99.90;;;;;;5058119;28;20052;-66
2022/02/07 04:43:07;;;;;;;13.55;3.42;;;4.20;99.90;;;;;;5052915;28;20425;-72
2022/02/07 04:51:12;;;;;;;12.55;3.60;;;4.10;99.90;;;;;;5059840;28;20136;-65
2022/02/07 05:01:48;;;;;;;14.02;5.68;;;3.90;99.90;;;;;;5070672;28;20421;-64
2022/02/07 05:04:09;;;;;;;9.02;2.65;;;3.90;99.90;;;;;;5053596;28;20044;-64
2022/02/07 05:14:52;;;;;;;10.55;3.47;;;3.70;99.90;;;;;;5055134;28;20037;-64
2022/02/07 05:17:21;;;;;;;10.70;2.97;;;3.70;99.90;;;;;;5051738;28;20049;-64
2022/02/07 05:19:48;;;;;;;12.65;3.17;;;3.60;99.90;;;;;;5064222;28;20059;-65
2022/02/07 05:22:15;;;;;;;9.35;2.95;;;3.60;99.90;;;;;;5069285;28;20090;-65
2022/02/07 05:24:42;;;;;;;10.52;3.03;;;3.50;99.90;;;;;;5071729;28;20052;-64
2022/02/07 05:27:09;;;;;;;9.02;3.25;;;3.50;99.90;;;;;;5043412;28;20049;-64
2022/02/07 05:29:36;;;;;;;18.85;4.53;;;3.50;99.90;;;;;;5054102;28;20049;-65
2022/02/07 05:32:05;;;;;;;14.43;4.30;;;3.50;99.90;;;;;;5058298;28;20056;-64
2022/02/07 05:34:35;;;;;;;9.43;3.28;;;3.40;99.90;;;;;;5052134;28;20049;-66
2022/02/07 05:37:02;;;;;;;12.27;2.88;;;3.40;99.90;;;;;;5052006;28;20111;-64
2022/02/07 05:39:34;;;;;;;13.13;3.67;;;3.40;99.90;;;;;;5054400;28;20488;-64
2022/02/07 05:42:06;;;;;;;16.95;4.90;;;3.40;99.90;;;;;;5053498;28;20107;-64
2022/02/07 05:44:33;;;;;;;13.60;4.22;;;3.30;99.90;;;;;;5068572;28;20048;-64
2022/02/07 05:47:00;;;;;;;8.05;3.38;;;3.30;99.90;;;;;;5056098;28;20053;-64
2022/02/07 05:49:27;;;;;;;12.55;3.05;;;3.30;99.90;;;;;;5050877;28;20053;-64
2022/02/07 05:51:54;;;;;;;15.60;4.15;;;3.30;99.90;;;;;;5053070;28;20051;-64
2022/02/07 05:54:22;;;;;;;18.55;5.30;;;3.30;99.90;;;;;;5063763;28;20102;-64
2022/02/07 05:56:49;;;;;;;8.10;2.70;;;3.30;99.90;;;;;;5051749;28;20056;-65
2022/02/07 05:59:16;;;;;;;14.52;3.58;;;3.30;99.90;;;;;;5055572;28;20056;-64
2022/02/07 06:01:43;;;;;;;11.40;3.42;;;3.20;99.90;;;;;;5052453;28;20053;-67
2022/02/07 06:04:11;;;;;;;9.40;2.90;;;3.20;99.90;;;;;;5064558;28;20096;-64
2022/02/07 06:06:38;;;;;;;10.63;2.95;;;3.10;99.90;;;;;;5057345;28;20049;-65
2022/02/07 06:09:07;;;;;;;15.23;4.28;;;3.10;99.90;;;;;;5052594;28;20048;-64
2022/02/07 06:11:34;;;;;;;12.90;3.03;;;3.10;99.90;;;;;;5056223;28;20049;-64
2022/02/07 06:14:01;;;;;;;10.75;3.00;;;3.10;99.90;;;;;;5067822;28;20059;-64
2022/02/07 06:16:31;;;;;;;16.38;4.07;;;3.10;99.90;;;;;;5067341;28;20484;-64
2022/02/07 06:18:59;;;;;;;11.55;4.05;;;3.00;99.90;;;;;;5053177;28;20049;-65
2022/02/07 06:21:27;;;;;;;13.55;3.70;;;3.00;99.90;;;;;;5056978;28;20037;-64
2022/02/07 06:23:57;;;;;;;13.05;3.85;;;3.10;99.90;;;;;;5052584;28;20118;-64
2022/02/07 06:26:24;;;;;;;12.80;2.85;;;3.10;99.90;;;;;;5051104;28;20265;-70
2022/02/07 06:28:51;;;;;;;17.80;3.47;;;3.10;99.90;;;;;;5058726;28;20415;-64
2022/02/07 06:31:18;;;;;;;18.83;4.65;;;3.10;99.90;;;;;;5068149;28;20052;-63
2022/02/07 06:33:45;;;;;;;14.15;3.58;;;3.00;99.90;;;;;;5066680;28;20049;-64
2022/02/07 06:36:12;;;;;;;13.68;4.10;;;3.00;99.90;;;;;;5055916;28;20056;-66
2022/02/07 06:38:39;;;;;;;9.50;2.85;;;3.00;99.90;;;;;;5059465;28;20120;-65
2022/02/07 06:41:06;;;;;;;12.10;2.70;;;3.00;99.90;;;;;;5058816;28;20488;-71
2022/02/07 06:43:33;;;;;;;245.18;150.32;;;3.00;99.90;;;;;;5070600;28;20057;-64
2022/02/07 06:46:00;;;;;;;71.35;40.42;;;3.10;99.90;;;;;;5070864;28;20064;-64
2022/02/07 06:48:27;;;;;;;31.55;16.67;;;3.10;99.90;;;;;;5056776;28;20052;-65
2022/02/07 06:50:54;;;;;;;22.77;9.77;;;3.10;99.90;;;;;;5062772;28;20400;-69
2022/02/07 06:53:21;;;;;;;18.65;6.55;;;3.00;99.90;;;;;;5038206;28;20049;-70
2022/02/07 06:55:49;;;;;;;16.65;4.85;;;3.00;99.90;;;;;;5054250;28;20118;-69
2022/02/07 06:58:16;;;;;;;17.25;5.63;;;2.90;99.90;;;;;;5053410;28;20102;-66
2022/02/07 07:00:43;;;;;;;8.57;3.72;;;2.90;99.90;;;;;;5052868;28;20540;-68
2022/02/07 07:03:15;;;;;;;13.35;3.58;;;2.90;99.90;;;;;;5065415;28;20044;-64
2022/02/07 07:05:42;;;;;;;10.45;3.45;;;2.80;99.90;;;;;;5054225;28;20045;-64
2022/02/07 07:08:09;;;;;;;13.55;3.03;;;2.70;99.90;;;;;;5053355;28;20096;-64
2022/02/07 07:10:38;;;;;;;11.50;3.60;;;2.80;99.90;;;;;;5056609;28;20108;-67
2022/02/07 07:13:12;;;;;;;59.90;30.50;;;2.70;99.90;;;;;;5048439;28;20051;-65
2022/02/07 07:15:42;;;;;;;258.30;178.93;;;2.70;99.90;;;;;;5062640;28;20078;-67
2022/02/07 07:18:09;;;;;;;83.13;44.50;;;2.70;99.90;;;;;;5071459;28;20048;-67
2022/02/07 07:20:36;;;;;;;39.75;20.48;;;2.70;99.90;;;;;;5060084;28;20057;-67
2022/02/07 07:23:04;;;;;;;25.17;13.63;;;2.70;99.90;;;;;;5063349;28;20294;-70
2022/02/07 07:25:31;;;;;;;16.45;8.35;;;2.70;99.90;;;;;;5062931;28;20094;-68
2022/02/07 07:28:06;;;;;;;17.75;6.78;;;2.70;99.90;;;;;;5058090;28;20484;-66
2022/02/07 07:30:40;;;;;;;14.00;4.78;;;2.70;99.90;;;;;;5057666;28;20049;-66
2022/02/07 07:33:12;;;;;;;12.07;4.88;;;2.70;99.90;;;;;;5056423;28;20507;-67
2022/02/07 07:35:39;;;;;;;19.23;6.03;;;2.70;99.90;;;;;;5070809;28;20052;-67
2022/02/07 07:38:06;;;;;;;15.30;3.03;;;2.70;99.90;;;;;;5059113;28;20047;-67
2022/02/07 07:40:32;;;;;;;13.85;5.03;;;2.60;99.90;;;;;;5058285;28;20057;-68
2022/02/07 07:43:00;;;;;;;52.08;31.88;;;2.60;99.90;;;;;;5060685;28;20044;-68
2022/02/07 07:45:32;;;;;;;22.67;12.43;;;2.70;99.90;;;;;;5057794;28;20469;-68
2022/02/07 07:48:03;;;;;;;19.73;11.32;;;2.70;99.90;;;;;;5052484;28;20103;-65
2022/02/07 07:50:38;;;;;;;12.70;5.57;;;2.70;99.90;;;;;;5053436;28;20128;-70
2022/02/07 07:53:20;;;;;;;12.15;4.43;;;2.60;99.90;;;;;;5052306;28;20045;-65
2022/02/07 08:04:06;;;;;;;19.90;4.80;;;2.70;99.90;;;;;;5067803;28;20056;-68
2022/02/07 08:06:41;;;;;;;10.18;3.53;;;2.70;99.90;;;;;;5063043;28;20052;-69
2022/02/07 08:11:37;;;;;;;15.80;3.13;;;2.80;99.90;;;;;;5050879;28;20048;-69
2022/02/07 08:14:05;;;;;;;21.38;5.85;;;2.90;99.90;;;;;;5071825;28;20053;-69
2022/02/07 08:16:32;;;;;;;8.43;3.55;;;3.00;99.90;;;;;;5060089;28;20056;-69
2022/02/07 08:19:06;;;;;;;14.20;5.20;;;3.00;99.90;;;;;;5055676;28;20053;-68
2022/02/07 08:21:36;;;;;;;13.70;3.40;;;3.10;99.90;;;;;;5050842;28;20078;-67
2022/02/07 08:24:04;;;;;;;15.23;4.65;;;3.20;99.90;;;;;;5035258;28;20061;-71
2022/02/07 08:26:31;;;;;;;20.67;4.63;;;3.20;99.90;;;;;;5052718;28;20542;-68
2022/02/07 08:28:58;;;;;;;14.75;4.00;;;3.30;99.90;;;;;;5055995;28;20374;-63
2022/02/07 08:31:25;;;;;;;18.60;4.53;;;3.30;99.90;;;;;;5064657;28;20045;-62
2022/02/07 08:33:52;;;;;;;16.80;4.10;;;3.40;99.90;;;;;;5052349;28;20504;-63
2022/02/07 08:36:19;;;;;;;28.42;10.27;;;3.50;99.90;;;;;;5037713;28;20049;-63
2022/02/07 08:38:46;;;;;;;16.75;5.93;;;3.60;99.90;;;;;;5046947;28;20045;-62
2022/02/07 08:41:13;;;;;;;14.23;4.43;;;3.60;99.90;;;;;;5031721;28;20458;-63
2022/02/07 08:43:40;;;;;;;16.02;4.80;;;3.70;99.90;;;;;;5026584;28;20513;-63
2022/02/07 08:46:08;;;;;;;12.27;3.97;;;3.70;99.90;;;;;;5031163;28;20448;-65
2022/02/07 08:48:35;;;;;;;42.78;22.48;;;3.80;99.90;;;;;;5015465;28;20448;-63
2022/02/07 08:51:02;;;;;;;50.63;28.05;;;3.90;99.90;;;;;;5049279;28;20053;-63
2022/02/07 08:53:35;;;;;;;25.35;8.20;;;4.10;99.90;;;;;;5041143;28;20049;-63
2022/02/07 08:56:03;;;;;;;17.13;5.20;;;4.10;99.90;;;;;;5051122;28;20106;-62
2022/02/07 08:58:33;;;;;;;16.73;6.07;;;4.20;99.90;;;;;;5051325;28;20086;-64
2022/02/07 09:01:43;;;;;;;15.40;4.40;;;4.20;99.90;;;;;;5051874;28;20052;-64
2022/02/07 09:04:29;;;;;;;14.70;3.72;;;4.30;99.90;;;;;;5050288;28;20049;-63
2022/02/07 09:06:59;;;;;;;12.80;5.10;;;4.40;99.90;;;;;;5052077;28;20052;-67
2022/02/07 09:09:26;;;;;;;19.55;4.22;;;4.40;99.90;;;;;;5052314;28;20045;-64
2022/02/07 09:11:53;;;;;;;15.57;5.45;;;4.50;99.90;;;;;;5052175;28;20068;-65
2022/02/07 09:14:26;;;;;;;13.93;4.30;;;4.60;99.90;;;;;;5035529;28;20233;-65
2022/02/07 09:16:53;;;;;;;14.77;4.60;;;4.60;99.90;;;;;;5051022;28;20060;-65
2022/02/07 09:19:20;;;;;;;17.98;4.65;;;4.70;99.90;;;;;;5051825;28;20048;-65
2022/02/07 09:21:48;;;;;;;16.30;4.20;;;4.70;99.90;;;;;;5058134;28;20044;-64
2022/02/07 09:24:16;;;;;;;16.50;5.32;;;4.80;99.90;;;;;;5045612;28;20071;-65
2022/02/07 09:26:43;;;;;;;17.25;5.43;;;4.80;99.90;;;;;;5063797;28;20045;-68
2022/02/07 09:29:10;;;;;;;20.33;5.43;;;4.90;99.90;;;;;;5050657;28;20488;-66
2022/02/07 09:31:37;;;;;;;15.88;5.20;;;5.00;99.90;;;;;;5050294;28;20049;-65
2022/02/07 09:34:04;;;;;;;14.23;4.40;;;5.00;99.90;;;;;;5087841;28;20052;-66
2022/02/07 09:36:31;;;;;;;15.65;4.15;;;5.00;99.90;;;;;;5054129;28;20048;-65
2022/02/07 09:38:58;;;;;;;13.27;4.50;;;5.10;99.90;;;;;;5071806;28;20056;-66
2022/02/07 09:41:30;;;;;;;17.58;5.55;;;5.20;99.90;;;;;;5071995;28;20049;-66
2022/02/07 09:43:59;;;;;;;18.13;5.13;;;5.20;99.90;;;;;;5071516;28;20057;-66
2022/02/07 09:46:43;;;;;;;23.37;5.40;;;5.40;99.90;;;;;;5069987;28;20048;-66
2022/02/07 09:49:15;;;;;;;12.98;4.72;;;5.50;99.90;;;;;;5072229;28;20045;-66
2022/02/07 09:51:43;;;;;;;14.95;5.97;;;5.60;99.90;;;;;;5070441;28;20484;-66
2022/02/07 09:54:14;;;;;;;14.10;5.18;;;5.70;99.90;;;;;;5071033;28;20055;-65
2022/02/07 09:56:41;;;;;;;18.92;4.38;;;5.80;99.90;;;;;;5051879;28;20079;-66
2022/02/07 09:59:09;;;;;;;16.27;5.32;;;5.90;99.90;;;;;;5051443;28;20052;-66
2022/02/07 10:01:38;;;;;;;14.07;4.10;;;6.00;99.90;;;;;;5051509;28;20044;-66
2022/02/07 10:04:15;;;;;;;16.65;4.00;;;6.10;99.90;;;;;;5050445;28;20048;-66
2022/02/07 10:09:39;;;;;;;16.52;4.55;;;6.20;99.90;;;;;;5055936;28;20045;-66
2022/02/07 10:14:54;;;;;;;14.32;4.32;;;6.30;99.90;;;;;;5054474;28;20086;-66
2022/02/07 10:40:08;;;;;;;14.40;4.22;;;6.50;99.70;;;;;;5054184;28;20061;-66
2022/02/07 10:46:09;;;;;;;17.55;4.63;;;6.50;99.50;;;;;;5054968;28;20052;-65
2022/02/07 10:48:41;;;;;;;15.05;3.90;;;6.50;99.70;;;;;;5054007;28;20556;-65
2022/02/07 10:51:36;;;;;;;14.60;4.45;;;6.50;99.30;;;;;;5036565;28;20045;-66
2022/02/07 10:54:08;;;;;;;16.98;4.57;;;6.50;99.40;;;;;;5033726;28;20056;-66
2022/02/07 10:56:45;;;;;;;16.17;4.35;;;6.50;99.20;;;;;;5017507;28;20491;-66
2022/02/07 10:59:17;;;;;;;13.73;5.13;;;6.60;99.50;;;;;;5038051;28;20128;-65
2022/02/07 11:04:29;;;;;;;20.25;5.18;;;6.50;99.40;;;;;;5054889;28;19921;-66
2022/02/07 11:07:00;;;;;;;23.25;5.03;;;6.60;99.00;;;;;;5053198;28;20417;-65
2022/02/07 11:09:41;;;;;;;12.18;5.20;;;6.60;99.50;;;;;;5053511;28;20052;-66
2022/02/07 11:12:22;;;;;;;16.38;5.25;;;6.60;99.40;;;;;;5054454;28;20045;-66
2022/02/07 11:23:45;;;;;;;18.13;4.85;;;6.80;97.90;;;;;;5045219;28;20755;-65
2022/02/07 11:26:32;;;;;;;20.33;5.18;;;6.90;97.50;;;;;;5053099;28;20072;-65
2022/02/07 11:28:59;;;;;;;13.68;4.30;;;6.90;97.40;;;;;;5054210;28;20075;-72
2022/02/07 11:31:32;;;;;;;30.50;6.68;;;7.00;96.90;;;;;;5052586;28;20059;-66
2022/02/07 11:34:12;;;;;;;12.55;5.03;;;7.00;96.50;;;;;;5054419;28;20475;-66
2022/02/07 11:36:40;;;;;;;18.65;4.70;;;7.10;96.10;;;;;;5036144;28;20057;-66
2022/02/07 11:39:16;;;;;;;18.98;7.03;;;7.10;96.30;;;;;;5054072;28;20045;-66
2022/02/07 11:42:03;;;;;;;16.88;5.45;;;7.20;96.10;;;;;;5036401;28;20135;-66
2022/02/07 11:44:43;;;;;;;11.82;4.50;;;7.20;94.80;;;;;;5053556;28;20079;-66
2022/02/07 11:47:29;;;;;;;14.55;4.72;;;7.30;94.70;;;;;;5053157;28;20056;-66
2022/02/07 11:50:00;;;;;;;12.45;4.95;;;7.30;93.90;;;;;;5052567;28;20550;-68
2022/02/07 11:52:42;;;;;;;11.73;3.70;;;7.30;94.70;;;;;;5052521;28;20053;-66
2022/02/07 11:55:23;;;;;;;17.17;4.10;;;7.40;94.30;;;;;;5053430;28;20104;-67
2022/02/07 11:58:00;;;;;;;12.88;4.60;;;7.50;93.70;;;;;;5057437;28;20420;-65
2022/02/07 12:00:33;;;;;;;30.42;17.25;;;7.50;93.30;;;;;;5051973;28;20048;-68
2022/02/07 12:03:04;;;;;;;23.48;11.85;;;7.50;93.40;;;;;;5052441;28;20052;-66
2022/02/07 12:05:32;;;;;;;14.55;6.22;;;7.60;92.70;;;;;;5053453;28;20056;-65
2022/02/07 12:08:03;;;;;;;17.52;4.43;;;7.70;91.90;;;;;;5061096;28;20045;-66
2022/02/07 12:10:41;;;;;;;14.27;4.30;;;7.70;92.50;;;;;;5056195;28;20103;-68
2022/02/07 12:13:46;;;;;;;11.93;5.03;;;7.80;92.10;;;;;;5044849;28;20044;-65
2022/02/07 12:16:20;;;;;;;9.77;3.78;;;7.80;90.90;;;;;;5026813;28;20057;-71
2022/02/07 12:19:07;;;;;;;17.35;3.92;;;7.90;91.10;;;;;;5011025;28;20046;-66
2022/02/07 12:21:34;;;;;;;15.05;4.50;;;7.90;91.00;;;;;;5025935;28;20056;-68
2022/02/07 12:24:02;;;;;;;11.80;4.20;;;7.90;90.90;;;;;;5071100;28;20052;-66
2022/02/07 12:26:35;;;;;;;13.00;4.75;;;7.90;90.80;;;;;;5059268;28;20052;-66
2022/02/07 12:29:08;;;;;;;19.30;5.43;;;8.00;90.60;;;;;;5052521;28;20053;-64
2022/02/07 12:31:40;;;;;;;10.30;3.10;;;8.00;89.30;;;;;;5052856;28;20053;-68
2022/02/07 12:34:12;;;;;;;9.52;3.53;;;8.10;88.50;;;;;;5053016;28;20048;-68
2022/02/07 12:36:39;;;;;;;8.93;3.50;;;8.20;88.00;;;;;;5059675;28;20104;-62
2022/02/07 12:39:08;;;;;;;14.50;4.18;;;8.40;87.10;;;;;;5063332;28;20048;-67
2022/02/07 12:41:36;;;;;;;17.73;3.55;;;8.50;86.00;;;;;;5027780;28;20049;-66
2022/02/07 12:44:04;;;;;;;49.85;26.92;;;8.60;85.30;;;;;;5056582;28;20057;-66
2022/02/07 12:46:32;;;;;;;38.80;28.33;;;8.80;85.00;;;;;;5047663;28;20050;-65
2022/02/07 12:49:08;;;;;;;16.27;7.32;;;8.90;83.10;;;;;;5033981;28;20095;-63
2022/02/07 12:51:47;;;;;;;11.32;3.83;;;9.00;82.20;;;;;;5070066;28;20052;-68
2022/02/07 12:54:18;;;;;;;12.98;3.17;;;9.10;83.10;;;;;;5070136;28;20132;-62
2022/02/07 12:56:45;;;;;;;8.57;2.90;;;9.20;84.30;;;;;;5032116;28;20068;-67
2022/02/07 12:59:12;;;;;;;86.40;62.95;;;9.30;81.90;;;;;;5052111;28;20041;-66
2022/02/07 13:01:45;;;;;;;103.65;69.90;;;9.30;82.10;;;;;;5035686;28;20061;-67
2022/02/07 13:04:18;;;;;;;16.60;7.13;;;9.40;81.50;;;;;;5049145;28;20055;-66
2022/02/07 13:06:55;;;;;;;11.32;4.88;;;9.40;81.10;;;;;;5049623;28;20056;-67
2022/02/07 13:09:26;;;;;;;13.77;4.60;;;9.50;81.10;;;;;;5050818;28;20439;-67
2022/02/07 13:12:02;;;;;;;12.23;3.60;;;9.50;80.80;;;;;;5068991;28;20818;-67
2022/02/07 13:14:30;;;;;;;10.57;3.00;;;9.60;82.10;;;;;;5069017;28;20051;-68
2022/02/07 13:16:57;;;;;;;16.83;3.80;;;9.70;82.10;;;;;;5047156;28;20048;-70
2022/02/07 13:19:27;;;;;;;12.88;3.15;;;9.80;82.70;;;;;;5065628;28;20049;-68
2022/02/07 13:21:54;;;;;;;;;;;9.90;81.30;;;;;;5065483;28;20466;-68
2022/02/07 13:24:27;;;;;;;15.07;3.83;;;10.00;79.40;;;;;;5050994;28;19928;-68
2022/02/07 13:26:56;;;;;;;11.15;3.47;;;10.00;78.80;;;;;;5049262;28;20481;-66
2022/02/07 13:29:27;;;;;;;13.95;4.45;;;10.10;80.30;;;;;;5029003;28;20477;-68
2022/02/07 13:31:56;;;;;;;10.57;3.92;;;10.20;79.00;;;;;;5028549;28;20104;-69
2022/02/07 13:34:29;;;;;;;9.45;3.17;;;10.20;78.60;;;;;;5036089;28;20083;-67
2022/02/07 13:37:07;;;;;;;12.18;3.58;;;10.20;77.70;;;;;;5065379;28;20037;-68
2022/02/07 13:39:53;;;;;;;9.95;3.22;;;10.30;76.80;;;;;;5046910;28;20167;-68
2022/02/07 13:42:24;;;;;;;15.73;3.90;;;10.40;77.00;;;;;;5044508;28;20060;-68
2022/02/07 13:44:53;;;;;;;10.40;3.05;;;10.40;77.10;;;;;;5049103;28;20052;-68
2022/02/07 13:47:22;;;;;;;10.50;2.67;;;10.40;77.60;;;;;;5065691;28;20041;-68
2022/02/07 13:50:01;;;;;;;11.18;3.03;;;10.50;74.80;;;;;;5068093;28;20403;-67
2022/02/07 13:52:31;;;;;;;10.35;2.83;;;10.50;74.60;;;;;;5054276;28;20044;-68
2022/02/07 13:55:24;;;;;;;9.40;2.70;;;10.40;74.50;;;;;;5049693;28;20052;-67
2022/02/07 13:58:04;;;;;;;13.73;3.38;;;10.30;73.10;;;;;;5047297;28;20041;-66
2022/02/07 14:00:36;;;;;;;8.70;2.17;;;10.20;74.70;;;;;;5064232;28;20434;-66
2022/02/07 14:03:14;;;;;;;7.38;2.60;;;10.20;74.50;;;;;;5037857;28;20046;-65
2022/02/07 14:05:51;;;;;;;12.68;4.65;;;10.10;74.00;;;;;;5030328;28;20464;-66
2022/02/07 14:08:35;;;;;;;12.18;3.35;;;10.00;72.40;;;;;;5023304;28;20457;-68
2022/02/07 14:11:07;;;;;;;98.97;64.75;;;10.00;72.20;;;;;;5040635;28;20392;-74
2022/02/07 14:13:35;;;;;;;18.20;7.93;;;10.00;73.60;;;;;;5051666;28;20060;-68
2022/02/07 14:16:03;;;;;;;11.18;3.88;;;10.00;72.70;;;;;;5049325;28;20049;-68
2022/02/07 14:18:32;;;;;;;10.43;4.07;;;10.00;73.20;;;;;;5050253;28;20057;-68
2022/02/07 14:21:09;;;;;;;10.23;3.63;;;9.90;72.80;;;;;;5032641;28;20067;-69
2022/02/07 14:23:41;;;;;;;9.15;2.95;;;9.90;73.20;;;;;;5062324;28;20399;-68
2022/02/07 14:26:36;;;;;;;11.25;3.88;;;9.90;73.00;;;;;;5052352;28;20080;-67
2022/02/07 14:29:04;;;;;;;7.75;2.88;;;9.90;73.50;;;;;;5059497;28;20064;-68
2022/02/07 14:31:31;;;;;;;11.60;3.42;;;9.80;74.80;;;;;;5031460;28;20060;-68
2022/02/07 14:33:58;;;;;;;10.00;3.72;;;9.80;74.80;;;;;;5048667;28;20110;-69
2022/02/07 14:36:28;;;;;;;12.43;3.47;;;9.80;76.10;;;;;;5059483;28;20051;-67
2022/02/07 14:38:55;;;;;;;18.30;3.22;;;9.80;77.10;;;;;;5068521;28;20051;-69
2022/02/07 14:41:23;;;;;;;13.90;4.13;;;9.80;77.40;;;;;;5067541;28;20504;-69
2022/02/07 14:43:53;;;;;;;12.82;4.32;;;9.80;77.50;;;;;;5050173;28;20053;-69
2022/02/07 14:46:24;;;;;;;11.65;4.25;;;9.80;77.30;;;;;;5030099;28;20053;-69
2022/02/07 14:48:51;;;;;;;11.93;3.47;;;9.80;78.00;;;;;;5013148;28;20309;-68
2022/02/07 14:51:18;;;;;;;9.55;3.13;;;9.90;77.90;;;;;;5059530;28;20182;-69
2022/02/07 14:53:46;;;;;;;10.38;4.00;;;9.90;77.80;;;;;;5057378;28;20080;-69
2022/02/07 14:56:13;;;;;;;15.50;3.72;;;10.00;78.20;;;;;;5035090;28;20053;-69
2022/02/07 14:58:40;;;;;;;12.45;4.72;;;10.00;79.30;;;;;;5062689;28;20060;-70
2022/02/07 15:01:07;;;;;;;11.32;3.50;;;10.00;79.80;;;;;;5052191;28;20575;-68
2022/02/07 15:03:34;;;;;;;15.00;3.72;;;10.00;80.50;;;;;;5054357;28;20045;-68
2022/02/07 15:06:03;;;;;;;12.20;4.18;;;10.10;80.80;;;;;;5059851;28;20060;-70
2022/02/07 15:08:30;;;;;;;44.80;30.40;;;10.10;80.50;;;;;;5036474;28;20053;-70
2022/02/07 15:10:57;;;;;;;16.98;8.07;;;10.20;81.10;;;;;;5066012;28;20041;-69
2022/02/07 15:13:25;;;;;;;17.55;4.88;;;10.20;80.00;;;;;;5058312;28;20492;-71
2022/02/07 15:15:52;;;;;;;13.93;4.50;;;10.10;80.70;;;;;;5052470;28;20045;-70
2022/02/07 15:18:22;;;;;;;11.65;3.90;;;10.10;82.00;;;;;;5042400;28;20055;-70
2022/02/07 15:20:49;;;;;;;12.07;4.05;;;10.10;82.50;;;;;;5054020;28;20052;-67
2022/02/07 15:23:16;;;;;;;18.58;5.53;;;10.10;82.30;;;;;;5074577;28;20049;-66
2022/02/07 15:25:45;;;;;;;14.13;5.07;;;10.10;82.90;;;;;;5060250;28;20063;-66
2022/02/07 15:28:12;;;;;;;13.50;5.17;;;10.10;83.40;;;;;;5065102;28;20047;-67